createdAt,value
2023-07-01T00:01:35.468Z,56.23
2023-07-01T00:04:04.450Z,55.85
2023-07-01T00:06:33.228Z,56.02
2023-07-01T00:09:01.827Z,56.04
2023-07-01T00:11:30.940Z,55.87
2023-07-01T00:14:00.862Z,55.87
2023-07-01T00:16:29.887Z,56.23
2023-07-01T00:19:19.308Z,56.15
2023-07-01T00:21:47.478Z,55.77
2023-07-01T00:24:16.056Z,55.78
2023-07-01T00:26:44.334Z,55.72
2023-07-01T00:29:14.785Z,55.80
2023-07-01T00:31:43.712Z,56.17
2023-07-01T00:34:12.163Z,56.03
2023-07-01T00:36:40.445Z,56.23
2023-07-01T00:39:09.350Z,56.15
2023-07-01T00:41:37.502Z,56.11
2023-07-01T00:44:06.306Z,55.69
2023-07-01T00:46:36.820Z,56.13
2023-07-01T00:49:05.424Z,56.19
2023-07-01T00:51:33.730Z,55.94
2023-07-01T00:54:02.095Z,55.95
2023-07-01T00:56:30.198Z,55.95
2023-07-01T00:58:58.479Z,55.86
2023-07-01T01:01:35.196Z,55.95
2023-07-01T01:04:10.906Z,56.45
2023-07-01T01:06:44.739Z,56.45
2023-07-01T01:09:18.491Z,55.92
2023-07-01T01:11:48.625Z,55.96
2023-07-01T01:14:18.758Z,55.63
2023-07-01T01:16:50.734Z,55.66
2023-07-01T01:19:39.248Z,55.53
2023-07-01T01:22:17.456Z,56.20
2023-07-01T01:24:49.311Z,57.27
2023-07-01T01:27:24.031Z,56.32
2023-07-01T01:29:53.773Z,56.28
2023-07-01T01:32:24.093Z,56.45
2023-07-01T01:34:52.337Z,56.24
2023-07-01T01:37:27.020Z,56.22
2023-07-01T01:40:02.760Z,56.55
2023-07-01T01:42:36.706Z,56.88
2023-07-01T01:45:08.606Z,56.36
2023-07-01T01:47:38.563Z,56.75
2023-07-01T01:50:11.665Z,56.25
2023-07-01T01:52:42.560Z,56.48
2023-07-01T01:55:14.996Z,56.43
2023-07-01T01:57:43.440Z,56.49
2023-07-01T02:00:14.334Z,56.38
2023-07-01T02:02:42.892Z,56.54
2023-07-01T02:05:11.565Z,56.55
2023-07-01T02:07:40.534Z,56.72
2023-07-01T02:10:09.734Z,56.87
2023-07-01T02:12:38.216Z,56.63
2023-07-01T02:15:07.253Z,56.75
2023-07-01T02:17:36.873Z,56.40
2023-07-01T02:20:06.521Z,56.62
2023-07-01T02:22:34.785Z,56.37
2023-07-01T02:25:02.958Z,56.29
2023-07-01T02:27:32.252Z,56.23
2023-07-01T02:30:00.388Z,56.27
2023-07-01T02:32:28.725Z,56.23
2023-07-01T02:34:58.630Z,56.34
2023-07-01T02:37:27.422Z,56.43
2023-07-01T02:39:55.510Z,56.55
2023-07-01T02:42:23.773Z,56.54
2023-07-01T02:44:51.893Z,56.50
2023-07-01T02:47:20.749Z,56.46
2023-07-01T02:49:50.623Z,56.60
2023-07-01T02:52:20.232Z,56.67
2023-07-01T02:54:48.768Z,56.52
2023-07-01T02:57:16.833Z,56.43
2023-07-01T02:59:45.232Z,56.53
2023-07-01T03:02:13.844Z,56.46
2023-07-01T03:04:42.231Z,56.22
2023-07-01T03:07:10.639Z,56.29
2023-07-01T03:09:40.412Z,56.32
2023-07-01T03:12:09.199Z,56.54
2023-07-01T03:14:37.791Z,56.43
2023-07-01T03:17:06.938Z,56.58
2023-07-01T03:19:37.639Z,56.49
2023-07-01T03:22:07.429Z,56.47
2023-07-01T03:24:35.671Z,56.42
2023-07-01T03:27:07.178Z,56.35
2023-07-01T03:29:35.687Z,56.52
2023-07-01T03:32:04.959Z,56.55
2023-07-01T03:34:33.146Z,56.65
2023-07-01T03:37:01.410Z,56.76
2023-07-01T03:39:29.680Z,56.84
2023-07-01T03:41:57.799Z,56.88
2023-07-01T03:44:27.782Z,57.17
2023-07-01T03:46:55.932Z,57.19
2023-07-01T03:49:24.128Z,57.01
2023-07-01T03:51:52.745Z,56.87
2023-07-01T03:54:21.010Z,57.09
2023-07-01T03:56:49.181Z,57.07
2023-07-01T03:59:17.609Z,57.13
2023-07-01T04:01:47.198Z,57.32
2023-07-01T04:04:15.744Z,57.33
2023-07-01T04:06:44.464Z,57.35
2023-07-01T04:09:13.945Z,57.26
2023-07-01T04:11:42.635Z,57.15
2023-07-01T04:14:10.867Z,57.06
2023-07-01T04:16:39.074Z,57.07
2023-07-01T04:19:09.333Z,57.22
2023-07-01T04:21:37.601Z,56.96
2023-07-01T04:24:07.686Z,56.94
2023-07-01T04:26:36.375Z,56.77
2023-07-01T04:29:05.433Z,56.92
2023-07-01T04:31:33.792Z,57.06
2023-07-01T04:34:02.217Z,57.03
2023-07-01T04:36:31.759Z,56.91
2023-07-01T04:38:59.857Z,56.69
2023-07-01T04:41:28.407Z,56.93
2023-07-01T04:43:58.186Z,56.88
2023-07-01T04:46:26.362Z,57.00
2023-07-01T04:48:54.800Z,56.78
2023-07-01T04:51:23.262Z,56.89
2023-07-01T04:53:52.698Z,57.00
2023-07-01T04:56:25.027Z,56.92
2023-07-01T04:58:53.875Z,56.97
2023-07-01T05:01:22.297Z,57.13
2023-07-01T05:03:50.423Z,56.98
2023-07-01T05:06:18.660Z,56.78
2023-07-01T05:08:47.666Z,56.84
2023-07-01T05:11:17.510Z,56.94
2023-07-01T05:13:46.230Z,56.94
2023-07-01T05:16:15.054Z,56.64
2023-07-01T05:18:43.365Z,56.73
2023-07-01T05:21:11.518Z,56.87
2023-07-01T05:23:40.053Z,56.78
2023-07-01T05:26:08.252Z,56.57
2023-07-01T05:28:37.822Z,57.09
2023-07-01T05:31:06.354Z,56.78
2023-07-01T05:33:34.670Z,57.10
2023-07-01T05:36:03.036Z,56.51
2023-07-01T05:38:31.345Z,56.34
2023-07-01T05:40:59.560Z,56.74
2023-07-01T05:43:28.701Z,56.40
2023-07-01T05:45:58.637Z,56.61
2023-07-01T05:48:26.798Z,56.30
2023-07-01T05:50:55.029Z,56.27
2023-07-01T05:53:23.364Z,55.95
2023-07-01T05:55:51.384Z,55.94
2023-07-01T05:58:19.474Z,55.88
2023-07-01T06:00:48.131Z,55.87
2023-07-01T06:03:18.010Z,55.71
2023-07-01T06:05:46.100Z,55.62
2023-07-01T06:08:14.367Z,55.53
2023-07-01T06:10:42.829Z,54.95
2023-07-01T06:13:10.932Z,55.08
2023-07-01T06:15:39.034Z,54.86
2023-07-01T06:18:07.558Z,54.82
2023-07-01T06:20:36.999Z,54.42
2023-07-01T06:23:05.278Z,54.25
2023-07-01T06:25:33.952Z,53.87
2023-07-01T06:28:02.040Z,54.10
2023-07-01T06:30:30.576Z,54.39
2023-07-01T06:32:59.001Z,53.91
2023-07-01T06:35:27.502Z,53.85
2023-07-01T06:37:57.076Z,53.78
2023-07-01T06:40:25.514Z,53.12
2023-07-01T06:42:53.842Z,53.28
2023-07-01T06:45:22.054Z,53.00
2023-07-01T06:47:50.760Z,52.25
2023-07-01T06:50:18.998Z,52.20
2023-07-01T06:52:48.241Z,51.30
2023-07-01T06:55:19.487Z,51.74
2023-07-01T06:57:47.731Z,50.98
2023-07-01T07:00:16.090Z,51.25
2023-07-01T07:02:44.619Z,50.96
2023-07-01T07:05:12.752Z,51.12
2023-07-01T07:07:40.984Z,50.78
2023-07-01T07:10:10.158Z,50.84
2023-07-01T07:12:39.899Z,50.32
2023-07-01T07:15:09.407Z,48.46
2023-07-01T07:17:37.940Z,50.36
2023-07-01T07:20:06.982Z,49.97
2023-07-01T07:22:35.237Z,49.73
2023-07-01T07:25:04.123Z,49.73
2023-07-01T07:27:33.530Z,47.68
2023-07-01T07:30:05.581Z,49.04
2023-07-01T07:32:34.441Z,48.35
2023-07-01T07:35:02.685Z,48.44
2023-07-01T07:37:31.162Z,48.78
2023-07-01T07:40:00.948Z,48.86
2023-07-01T07:42:29.387Z,47.77
2023-07-01T07:44:57.539Z,48.59
2023-07-01T07:47:28.300Z,48.01
2023-07-01T07:49:56.515Z,47.69
2023-07-01T07:52:25.120Z,48.31
2023-07-01T07:54:53.663Z,47.82
2023-07-01T07:57:21.916Z,47.96
2023-07-01T07:59:50.091Z,48.29
2023-07-01T08:02:18.603Z,47.58
2023-07-01T08:04:48.273Z,47.01
2023-07-01T08:07:16.866Z,45.94
2023-07-01T08:09:44.980Z,46.37
2023-07-01T08:12:13.328Z,46.15
2023-07-01T08:14:41.878Z,45.78
2023-07-01T08:17:10.129Z,45.71
2023-07-01T08:19:38.497Z,44.89
2023-07-01T08:22:08.265Z,45.54
2023-07-01T08:24:37.184Z,44.02
2023-07-01T08:27:06.002Z,44.61
2023-07-01T08:29:34.094Z,43.53
2023-07-01T08:32:02.172Z,44.98
2023-07-01T08:34:30.758Z,44.24
2023-07-01T08:36:59.583Z,43.04
2023-07-01T08:39:29.776Z,43.63
2023-07-01T08:42:01.460Z,42.27
2023-07-01T08:44:30.130Z,42.99
2023-07-01T08:47:00.127Z,40.73
2023-07-01T08:49:29.924Z,43.33
2023-07-01T08:52:07.546Z,43.33
2023-07-01T08:54:38.018Z,40.13
2023-07-01T08:57:07.751Z,40.33
2023-07-01T08:59:36.116Z,39.20
2023-07-01T09:02:04.565Z,42.16
2023-07-01T09:04:33.506Z,42.97
2023-07-01T09:07:02.012Z,41.23
2023-07-01T09:09:30.237Z,42.15
2023-07-01T09:11:59.959Z,42.50
2023-07-01T09:14:28.202Z,40.57
2023-07-01T09:16:56.752Z,41.86
2023-07-01T09:19:25.250Z,39.97
2023-07-01T09:22:09.389Z,38.77
2023-07-01T09:24:39.814Z,39.16
2023-07-01T09:27:10.228Z,40.85
2023-07-01T09:29:41.632Z,39.85
2023-07-01T09:32:10.337Z,41.74
2023-07-01T09:34:53.971Z,40.79
2023-07-01T09:37:22.157Z,36.38
2023-07-01T09:39:50.891Z,40.06
2023-07-01T09:42:21.145Z,41.86
2023-07-01T09:45:09.689Z,40.54
2023-07-01T09:47:38.916Z,37.50
2023-07-01T09:50:08.388Z,39.99
2023-07-01T09:52:38.359Z,40.62
2023-07-01T09:55:09.623Z,39.32
2023-07-01T09:57:40.520Z,40.52
2023-07-01T10:00:13.365Z,40.52
2023-07-01T10:02:42.132Z,41.05
2023-07-01T10:05:11.016Z,40.51
2023-07-01T10:07:39.190Z,40.71
2023-07-01T10:10:22.366Z,35.59
2023-07-01T10:13:08.778Z,38.55
2023-07-01T10:15:43.616Z,33.64
2023-07-01T10:18:23.228Z,37.25
2023-07-01T10:20:52.567Z,33.20
2023-07-01T10:23:23.540Z,36.81
2023-07-01T10:25:57.582Z,38.12
2023-07-01T10:28:36.075Z,36.53
2023-07-01T10:31:20.613Z,33.02
2023-07-01T10:33:58.305Z,33.16
2023-07-01T10:36:38.338Z,36.26
2023-07-01T10:39:46.073Z,37.88
2023-07-01T10:42:32.311Z,33.20
2023-07-01T10:45:34.149Z,33.59
2023-07-01T10:48:17.572Z,33.87
2023-07-01T10:51:02.907Z,33.26
2023-07-01T10:53:31.465Z,32.80
2023-07-01T10:56:16.324Z,37.62
2023-07-01T10:58:45.128Z,32.20
2023-07-01T11:01:45.206Z,37.61
2023-07-01T11:04:15.021Z,32.54
2023-07-01T11:06:51.495Z,35.89
2023-07-01T11:09:30.043Z,33.60
2023-07-01T11:11:58.791Z,33.35
2023-07-01T11:14:34.868Z,36.17
2023-07-01T11:17:08.725Z,33.25
2023-07-01T11:19:39.131Z,33.21
2023-07-01T11:22:08.106Z,35.49
2023-07-01T11:24:38.089Z,36.24
2023-07-01T11:27:09.416Z,35.40
2023-07-01T11:29:42.035Z,34.95
2023-07-01T11:32:13.974Z,36.21
2023-07-01T11:34:46.338Z,35.48
2023-07-01T11:37:25.290Z,34.83
2023-07-01T11:39:54.667Z,31.22
2023-07-01T11:42:23.128Z,33.97
2023-07-01T11:44:51.505Z,34.09
2023-07-01T11:47:20.110Z,32.47
2023-07-01T11:49:49.922Z,36.28
2023-07-01T11:52:24.870Z,34.94
2023-07-01T11:54:55.847Z,30.44
2023-07-01T11:57:25.413Z,34.88
2023-07-01T11:59:55.750Z,35.01
2023-07-01T12:02:28.689Z,34.32
2023-07-01T12:04:58.886Z,31.07
2023-07-01T12:07:27.069Z,32.66
2023-07-01T12:09:55.503Z,34.55
2023-07-01T12:12:39.145Z,34.95
2023-07-01T12:15:10.642Z,27.97
2023-07-01T12:17:39.941Z,34.51
2023-07-01T12:20:11.331Z,31.49
2023-07-01T12:22:40.766Z,32.85
2023-07-01T12:25:10.070Z,34.08
2023-07-01T12:27:38.959Z,32.74
2023-07-01T12:30:11.069Z,34.09
2023-07-01T12:32:41.729Z,34.90
2023-07-01T12:35:12.016Z,33.92
2023-07-01T12:37:41.908Z,34.49
2023-07-01T12:40:12.025Z,31.27
2023-07-01T12:42:40.226Z,34.64
2023-07-01T12:45:09.409Z,34.71
2023-07-01T12:47:41.179Z,33.69
2023-07-01T12:50:11.802Z,33.37
2023-07-01T12:52:41.039Z,32.19
2023-07-01T12:55:11.098Z,33.11
2023-07-01T12:57:41.114Z,34.84
2023-07-01T13:00:11.185Z,32.18
2023-07-01T13:02:40.230Z,34.71
2023-07-01T13:05:12.066Z,34.04
2023-07-01T13:07:41.049Z,34.36
2023-07-01T13:10:12.706Z,34.37
2023-07-01T13:12:41.613Z,34.52
2023-07-01T13:15:21.437Z,34.65
2023-07-01T13:17:53.752Z,32.20
2023-07-01T13:20:27.890Z,33.66
2023-07-01T13:22:58.295Z,33.71
2023-07-01T13:25:27.244Z,35.09
2023-07-01T13:27:56.145Z,35.07
2023-07-01T13:30:41.688Z,33.38
2023-07-01T13:33:11.080Z,31.85
2023-07-01T13:35:41.149Z,33.59
2023-07-01T13:38:10.496Z,33.17
2023-07-01T13:40:42.742Z,34.71
2023-07-01T13:43:19.719Z,33.28
2023-07-01T13:45:48.765Z,33.43
2023-07-01T13:48:32.898Z,33.67
2023-07-01T13:51:03.727Z,31.93
2023-07-01T13:53:33.567Z,33.67
2023-07-01T13:56:03.568Z,33.31
2023-07-01T13:58:42.057Z,34.06
2023-07-01T14:01:11.894Z,34.58
2023-07-01T14:03:57.416Z,33.79
2023-07-01T14:06:27.179Z,30.73
2023-07-01T14:08:55.700Z,33.78
2023-07-01T14:11:29.393Z,33.88
2023-07-01T14:14:01.857Z,33.75
2023-07-01T14:16:31.798Z,33.95
2023-07-01T14:19:00.974Z,33.09
2023-07-01T14:21:36.500Z,33.23
2023-07-01T14:24:06.708Z,33.82
2023-07-01T14:26:42.788Z,34.64
2023-07-01T14:29:18.451Z,34.27
2023-07-01T14:31:51.946Z,33.97
2023-07-01T14:34:29.479Z,34.82
2023-07-01T14:37:00.168Z,34.38
2023-07-01T14:39:46.247Z,34.66
2023-07-01T14:42:21.891Z,32.66
2023-07-01T14:44:52.364Z,34.89
2023-07-01T14:47:22.207Z,35.01
2023-07-01T14:49:51.179Z,35.47
2023-07-01T14:52:24.854Z,35.17
2023-07-01T14:54:55.632Z,34.72
2023-07-01T14:57:25.633Z,34.41
2023-07-01T15:00:06.372Z,33.97
2023-07-01T15:02:39.273Z,34.97
2023-07-01T15:05:08.576Z,34.88
2023-07-01T15:07:41.591Z,34.97
2023-07-01T15:10:10.542Z,34.47
2023-07-01T15:12:38.963Z,35.38
2023-07-01T15:15:08.917Z,35.56
2023-07-01T15:17:38.424Z,35.81
2023-07-01T15:20:07.744Z,35.74
2023-07-01T15:22:35.903Z,35.86
2023-07-01T15:25:05.970Z,35.97
2023-07-01T15:27:34.158Z,36.18
2023-07-01T15:30:05.494Z,36.46
2023-07-01T15:32:34.846Z,36.62
2023-07-01T15:35:22.498Z,36.69
2023-07-01T15:38:03.454Z,36.78
2023-07-01T15:40:32.987Z,36.65
2023-07-01T15:43:01.518Z,36.75
2023-07-01T15:45:29.891Z,36.74
2023-07-01T15:47:58.220Z,37.24
2023-07-01T15:50:26.765Z,37.19
2023-07-01T15:52:54.977Z,37.40
2023-07-01T15:55:23.144Z,37.40
2023-07-01T15:57:52.998Z,37.58
2023-07-01T16:00:21.230Z,37.49
2023-07-01T16:02:49.785Z,37.80
2023-07-01T16:05:18.705Z,38.08
2023-07-01T16:07:54.062Z,37.95
2023-07-01T16:10:23.350Z,38.37
2023-07-01T16:12:53.983Z,37.94
2023-07-01T16:15:23.584Z,38.83
2023-07-01T16:17:54.053Z,38.50
2023-07-01T16:21:03.292Z,38.33
2023-07-01T16:23:33.055Z,39.06
2023-07-01T16:26:05.633Z,38.60
2023-07-01T16:28:44.566Z,39.15
2023-07-01T16:31:19.036Z,39.40
2023-07-01T16:33:47.573Z,39.31
2023-07-01T16:36:26.571Z,38.87
2023-07-01T16:39:00.657Z,39.91
2023-07-01T16:41:32.298Z,38.95
2023-07-01T16:44:02.000Z,39.23
2023-07-01T16:46:34.525Z,39.43
2023-07-01T16:49:04.740Z,39.16
2023-07-01T16:51:35.319Z,39.68
2023-07-01T16:54:16.025Z,39.53
2023-07-01T16:56:48.976Z,40.42
2023-07-01T16:59:39.304Z,40.15
2023-07-01T17:02:39.411Z,40.48
2023-07-01T17:05:12.354Z,40.10
2023-07-01T17:07:42.527Z,40.20
2023-07-01T17:10:37.573Z,40.01
2023-07-01T17:13:08.230Z,41.16
2023-07-01T17:15:42.747Z,40.74
2023-07-01T17:18:18.379Z,40.95
2023-07-01T17:20:46.990Z,41.61
2023-07-01T17:23:15.696Z,40.78
2023-07-01T17:25:43.951Z,41.22
2023-07-01T17:28:12.123Z,40.34
2023-07-01T17:30:42.035Z,40.25
2023-07-01T17:33:10.622Z,40.88
2023-07-01T17:35:39.219Z,40.61
2023-07-01T17:38:07.826Z,41.02
2023-07-01T17:40:36.061Z,43.16
2023-07-01T17:43:04.471Z,44.85
2023-07-01T17:45:33.185Z,44.54
2023-07-01T17:48:03.327Z,45.32
2023-07-01T17:50:49.437Z,45.55
2023-07-01T17:53:19.526Z,44.18
2023-07-01T17:55:47.977Z,47.31
2023-07-01T17:58:16.470Z,48.56
2023-07-01T18:00:45.084Z,45.81
2023-07-01T18:03:15.196Z,47.47
2023-07-01T18:05:43.557Z,46.88
2023-07-01T18:08:11.751Z,46.35
2023-07-01T18:10:40.994Z,46.77
2023-07-01T18:13:09.238Z,47.43
2023-07-01T18:15:37.350Z,47.11
2023-07-01T18:18:05.904Z,47.39
2023-07-01T18:20:49.117Z,49.45
2023-07-01T18:23:22.731Z,50.94
2023-07-01T18:25:50.913Z,48.84
2023-07-01T18:28:19.254Z,51.24
2023-07-01T18:30:47.647Z,49.68
2023-07-01T18:33:15.787Z,50.42
2023-07-01T18:35:45.373Z,49.77
2023-07-01T18:38:14.058Z,49.84
2023-07-01T18:40:42.123Z,50.89
2023-07-01T18:43:10.331Z,49.89
2023-07-01T18:45:38.705Z,51.38
2023-07-01T18:48:07.281Z,50.30
2023-07-01T18:50:35.358Z,49.85
2023-07-01T18:53:05.111Z,49.97
2023-07-01T18:55:33.262Z,50.12
2023-07-01T18:58:01.424Z,50.37
2023-07-01T19:00:29.902Z,49.96
2023-07-01T19:02:58.170Z,50.56
2023-07-01T19:05:26.363Z,51.49
2023-07-01T19:07:54.867Z,51.28
2023-07-01T19:10:24.308Z,50.09
2023-07-01T19:12:52.379Z,52.35
2023-07-01T19:15:20.954Z,50.97
2023-07-01T19:17:49.070Z,55.60
2023-07-01T19:20:39.509Z,52.17
2023-07-01T19:23:07.964Z,57.28
2023-07-01T19:25:38.641Z,53.20
2023-07-01T19:28:08.151Z,54.81
2023-07-01T19:30:38.510Z,53.81
2023-07-01T19:33:07.598Z,53.51
2023-07-01T19:35:35.756Z,55.46
2023-07-01T19:38:04.055Z,52.03
2023-07-01T19:40:32.211Z,53.06
2023-07-01T19:43:01.694Z,52.80
2023-07-01T19:45:30.103Z,53.16
2023-07-01T19:47:58.300Z,52.14
2023-07-01T19:50:26.374Z,53.26
2023-07-01T19:52:54.751Z,51.87
2023-07-01T19:55:23.949Z,54.07
2023-07-01T19:57:52.303Z,53.28
2023-07-01T20:00:23.383Z,52.25
2023-07-01T20:02:53.045Z,53.67
2023-07-01T20:05:23.163Z,52.13
2023-07-01T20:07:51.807Z,52.18
2023-07-01T20:10:30.059Z,52.06
2023-07-01T20:13:00.059Z,53.18
2023-07-01T20:15:29.928Z,52.89
2023-07-01T20:17:58.634Z,54.71
2023-07-01T20:20:27.138Z,54.45
2023-07-01T20:22:55.250Z,54.93
2023-07-01T20:25:23.358Z,53.15
2023-07-01T20:27:51.768Z,54.07
2023-07-01T20:30:20.228Z,54.06
2023-07-01T20:32:49.730Z,54.08
2023-07-01T20:35:19.008Z,53.25
2023-07-01T20:37:47.610Z,53.47
2023-07-01T20:40:15.802Z,54.41
2023-07-01T20:42:45.430Z,53.49
2023-07-01T20:45:13.667Z,53.63
2023-07-01T20:47:42.495Z,52.90
2023-07-01T20:50:12.965Z,53.65
2023-07-01T20:52:41.205Z,53.90
2023-07-01T20:55:11.135Z,53.50
2023-07-01T20:57:39.502Z,53.72
2023-07-01T21:00:08.956Z,53.37
2023-07-01T21:02:37.096Z,53.83
2023-07-01T21:05:06.337Z,52.95
2023-07-01T21:07:35.692Z,53.41
2023-07-01T21:10:04.043Z,54.54
2023-07-01T21:12:32.508Z,53.96
2023-07-01T21:15:00.728Z,54.05
2023-07-01T21:17:30.950Z,54.22
2023-07-01T21:19:59.335Z,54.21
2023-07-01T21:22:27.649Z,54.16
2023-07-01T21:24:57.103Z,54.08
2023-07-01T21:28:01.220Z,54.53
2023-07-01T21:30:35.888Z,58.72
2023-07-01T21:33:04.711Z,54.98
2023-07-01T21:35:36.179Z,54.27
2023-07-01T21:38:06.570Z,54.01
2023-07-01T21:40:39.375Z,53.84
2023-07-01T21:43:16.992Z,54.60
2023-07-01T21:45:45.801Z,56.02
2023-07-01T21:48:15.694Z,54.32
2023-07-01T21:50:59.418Z,54.37
2023-07-01T21:53:30.616Z,58.45
2023-07-01T21:56:01.521Z,54.10
2023-07-01T21:58:33.153Z,55.16
2023-07-01T22:01:07.483Z,54.75
2023-07-01T22:03:37.563Z,55.56
2023-07-01T22:06:08.718Z,54.23
2023-07-01T22:08:37.144Z,54.14
2023-07-01T22:11:06.568Z,54.23
2023-07-01T22:13:34.810Z,54.25
2023-07-01T22:16:03.366Z,53.80
2023-07-01T22:18:31.697Z,53.79
2023-07-01T22:21:00.266Z,54.63
2023-07-01T22:23:30.396Z,54.02
2023-07-01T22:25:58.796Z,53.77
2023-07-01T22:28:30.168Z,54.09
2023-07-01T22:30:59.970Z,54.08
2023-07-01T22:33:28.781Z,54.16
2023-07-01T22:35:57.458Z,54.36
2023-07-01T22:38:28.764Z,54.02
2023-07-01T22:40:57.924Z,54.18
2023-07-01T22:43:27.724Z,54.67
2023-07-01T22:45:55.761Z,54.47
2023-07-01T22:48:24.107Z,55.27
2023-07-01T22:50:52.857Z,54.60
2023-07-01T22:53:21.559Z,54.43
2023-07-01T22:55:49.575Z,55.17
2023-07-01T22:58:18.138Z,54.73
2023-07-01T23:00:47.717Z,54.96
2023-07-01T23:03:16.340Z,55.13
2023-07-01T23:05:44.909Z,54.53
2023-07-01T23:08:13.092Z,54.65
2023-07-01T23:10:41.177Z,55.56
2023-07-01T23:13:09.650Z,54.63
2023-07-01T23:15:38.476Z,56.43
2023-07-01T23:18:10.551Z,56.04
2023-07-01T23:20:40.153Z,55.94
2023-07-01T23:23:08.536Z,56.53
2023-07-01T23:25:36.750Z,56.98
2023-07-01T23:28:11.144Z,56.29
2023-07-01T23:30:40.557Z,57.65
2023-07-01T23:33:11.680Z,57.80
2023-07-01T23:35:39.956Z,56.50
2023-07-01T23:38:08.370Z,56.29
2023-07-01T23:40:36.633Z,56.35
2023-07-01T23:43:04.802Z,56.65
2023-07-01T23:45:33.136Z,55.95
2023-07-01T23:48:01.381Z,56.86
2023-07-01T23:50:30.893Z,57.45
2023-07-01T23:52:59.175Z,56.95
2023-07-01T23:55:27.394Z,56.65
2023-07-01T23:57:56.634Z,56.78
